»·PEaware :: DAL1753 KSLC-KRNO

DAL1753 :: KSLC-KRNO

FLIGHT INFORMATION

Flight Status: Arrived
Operator:
Delta Air Lines
More flights by this operator :: More flights under this callsign
Pilot: John C. (18682)
Aircraft: AIRBUS A320
(A320)
More flights by this aircraft type
Origin: KSLC Salt Lake City Intl
United States
Destination: KRNO Reno/Tahoe Intl
United States
More flights between these airports :: More routes between these airports
Route: +PECOP5 BAM MYBAD MYBAD2
File this flight plan on PilotEdge
Remarks:
Altitude:
(Current/Filed)
34,000ft
Speed:
(Current/Filed)
455kts
Departed: 09-May-18 04:19 PM
Arrived: 09-May-18 05:33 PM
Distance/Time
Traveled:
366nm/1:14
Distance/Time
To Go:
Arrived

Flight Plot

Page will automatically refresh every two minutes.

Flight plan parsing failed; only flown route is shown


Map Options




Map Legend


Flown Route
Filed Route
Departure Airport
Arrival Airport
Navaid (VOR, NDB)
Fix

Horizontal Profiles

Position Reports

Time Latitude Longitude Heading Altitude Ground
Speed
09-May-18 15:52 40.788508 -111.980775 283 4236ft 0kts
09-May-18 15:53 40.788508 -111.980775 283 4236ft 0kts
09-May-18 15:54 40.788508 -111.980775 283 4236ft 0kts
09-May-18 15:55 40.788508 -111.980775 283 4236ft 0kts
09-May-18 15:56 40.788508 -111.980775 283 4236ft 0kts
09-May-18 15:57 40.788508 -111.980775 283 4236ft 0kts
09-May-18 15:58 40.788508 -111.980775 283 4236ft 0kts
09-May-18 15:59 40.788508 -111.980775 282 4236ft 0kts
09-May-18 16:00 40.788508 -111.980775 283 4236ft 0kts
09-May-18 16:01 40.788508 -111.980775 283 4236ft 0kts
09-May-18 16:02 40.788508 -111.980775 283 4236ft 0kts
09-May-18 16:03 40.788508 -111.980775 283 4236ft 0kts
09-May-18 16:04 40.788508 -111.980775 283 4236ft 0kts
09-May-18 16:05 40.788508 -111.980775 283 4236ft 0kts
09-May-18 16:06 40.788508 -111.980775 283 4236ft 0kts
09-May-18 16:07 40.788508 -111.980775 283 4236ft 0kts
09-May-18 16:08 40.788508 -111.980775 283 4236ft 0kts
09-May-18 16:09 40.788508 -111.980775 283 4236ft 0kts
09-May-18 16:10 40.788438 -111.980374 283 4236ft 2kts
09-May-18 16:11 40.788115 -111.980055 22 4236ft 1kts
09-May-18 16:12 40.788092 -111.980066 18 4236ft 0kts
09-May-18 16:13 40.788308 -111.979966 19 4236ft 8kts
09-May-18 16:14 40.789699 -111.977456 110 4236ft 11kts
09-May-18 16:15 40.784406 -111.976442 173 4236ft 23kts
09-May-18 16:16 40.778454 -111.975279 168 4236ft 19kts
09-May-18 16:17 40.774673 -111.974723 147 4236ft 0kts
09-May-18 16:18 40.774751 -111.973632 51 4236ft 9kts
09-May-18 16:19 40.794962 -111.975593 354 4578ft 175kts
09-May-18 16:20 40.828924 -112.021163 293 7274ft 221kts
09-May-18 16:21 40.856983 -112.105839 293 9970ft 271kts
09-May-18 16:22 40.887708 -112.199199 284 13382ft 285kts
09-May-18 16:23 40.882347 -112.309091 263 16019ft 316kts
09-May-18 16:24 40.872809 -112.425490 263 18970ft 325kts
09-May-18 16:25 40.864545 -112.545625 265 21625ft 334kts
09-May-18 16:26 40.855185 -112.669045 263 24005ft 343kts
09-May-18 16:27 40.845300 -112.789548 263 26065ft 351kts
09-May-18 16:28 40.842050 -112.920859 269 27473ft 374kts
09-May-18 16:29 40.842480 -113.063909 269 28185ft 406kts
09-May-18 16:30 40.842710 -113.214941 269 29478ft 415kts
09-May-18 16:31 40.842758 -113.367655 269 30710ft 420kts
09-May-18 16:32 40.842584 -113.521701 269 32182ft 416kts
09-May-18 16:33 40.842237 -113.672303 269 33620ft 409kts
09-May-18 16:34 40.841709 -113.821409 269 34045ft 405kts
09-May-18 16:35 40.840886 -113.970018 269 34049ft 407kts
09-May-18 16:36 40.839845 -114.119445 269 34048ft 407kts
09-May-18 16:37 40.838618 -114.268200 269 34045ft 406kts
09-May-18 16:38 40.837195 -114.417511 269 34045ft 406kts
09-May-18 16:39 40.835585 -114.566552 269 34045ft 406kts
09-May-18 16:40 40.833791 -114.714915 268 34047ft 407kts
09-May-18 16:41 40.820633 -114.863044 262 34096ft 407kts
09-May-18 16:42 40.803899 -115.010545 261 34124ft 407kts
09-May-18 16:43 40.786966 -115.158010 261 34122ft 405kts
09-May-18 16:44 40.769986 -115.304198 261 34110ft 403kts
09-May-18 16:45 40.752856 -115.450038 261 34095ft 403kts
09-May-18 16:46 40.735581 -115.595479 261 34095ft 403kts
09-May-18 16:47 40.718067 -115.741322 260 34107ft 403kts
09-May-18 16:48 40.700332 -115.887403 260 34120ft 404kts
09-May-18 16:49 40.682451 -116.033159 260 34120ft 404kts
09-May-18 16:50 40.664312 -116.179032 260 34113ft 403kts
09-May-18 16:51 40.646184 -116.323394 260 34109ft 399kts
09-May-18 16:52 40.628023 -116.466832 260 34060ft 396kts
09-May-18 16:53 40.609770 -116.609477 260 34044ft 396kts
09-May-18 16:54 40.591376 -116.751761 260 34059ft 397kts
09-May-18 16:55 40.572678 -116.894926 260 34080ft 398kts
09-May-18 16:56 40.555281 -117.037937 260 34096ft 396kts
09-May-18 16:57 40.538204 -117.180558 260 34089ft 394kts
09-May-18 16:58 40.521036 -117.322115 260 34064ft 393kts
09-May-18 16:59 40.503661 -117.463895 260 34060ft 392kts
09-May-18 17:00 40.486160 -117.605152 260 34071ft 392kts
09-May-18 17:01 40.468496 -117.746305 259 34084ft 393kts
09-May-18 17:02 40.450591 -117.887894 259 33879ft 393kts
09-May-18 17:03 40.432497 -118.029547 259 33390ft 396kts
09-May-18 17:04 40.414158 -118.171667 259 32706ft 398kts
09-May-18 17:05 40.395513 -118.314708 259 32028ft 397kts
09-May-18 17:06 40.353933 -118.446789 240 31339ft 395kts
09-May-18 17:07 40.297269 -118.569188 241 30671ft 392kts
09-May-18 17:08 40.244931 -118.690742 244 30213ft 389kts
09-May-18 17:09 40.195819 -118.815922 244 29721ft 387kts
09-May-18 17:10 40.146791 -118.940401 243 29219ft 382kts
09-May-18 17:11 40.098818 -119.061688 243 28206ft 369kts
09-May-18 17:12 40.052851 -119.177436 243 26352ft 352kts
09-May-18 17:13 40.008863 -119.287818 243 24572ft 335kts
09-May-18 17:14 39.966393 -119.394055 243 22774ft 328kts
09-May-18 17:15 39.922295 -119.496492 239 20992ft 321kts
09-May-18 17:16 39.878729 -119.586971 239 19361ft 278kts
09-May-18 17:17 39.833797 -119.667817 233 17824ft 280kts
09-May-18 17:18 39.763500 -119.696042 174 16318ft 295kts
09-May-18 17:19 39.683647 -119.676940 176 14858ft 289kts
09-May-18 17:20 39.604922 -119.668337 180 13455ft 283kts
09-May-18 17:21 39.528103 -119.664982 181 12184ft 274kts
09-May-18 17:22 39.456058 -119.661861 181 11428ft 253kts
09-May-18 17:23 39.386386 -119.658438 181 10313ft 249kts
09-May-18 17:24 39.317485 -119.654775 180 9483ft 245kts
09-May-18 17:25 39.259762 -119.665790 223 9462ft 200kts
09-May-18 17:26 39.235568 -119.722679 264 9381ft 189kts
09-May-18 17:27 39.264404 -119.768640 357 9144ft 209kts
09-May-18 17:28 39.321635 -119.767526 354 7856ft 202kts
09-May-18 17:29 39.374231 -119.768429 354 6462ft 182kts
09-May-18 17:30 39.422646 -119.768915 353 5827ft 158kts
09-May-18 17:31 39.462614 -119.769160 353 4959ft 142kts
09-May-18 17:32 39.499380 -119.769329 0 4409ft 84kts
09-May-18 17:33 39.509611 -119.769215 0 4415ft 28kts
09-May-18 17:34 39.510983 -119.770144 275 4417ft 5kts
09-May-18 17:35 39.508453 -119.771499 179 4415ft 19kts
09-May-18 17:36 39.505899 -119.772963 253 4415ft 4kts
09-May-18 17:37 39.505235 -119.773175 179 4415ft 0kts
09-May-18 17:38 39.505217 -119.773175 179 4415ft 0kts
09-May-18 17:39 39.505217 -119.773175 179 4415ft 0kts
09-May-18 17:40 39.505217 -119.773175 179 4415ft 0kts
09-May-18 17:41 39.505217 -119.773175 179 4415ft 0kts
09-May-18 17:42 39.505217 -119.773175 179 4415ft 0kts
09-May-18 17:43 39.505217 -119.773175 179 4415ft 0kts
09-May-18 17:44 39.505217 -119.773175 179 4415ft 0kts

Navigation Log

Ident Type
Flight plan parsing failed, navigation log unavailable